sensor_id;sensor_type;location;lat;lon;timestamp;P1;durP1;ratioP1;P2;durP2;ratioP2
4603;SDS011;2314;48.272;11.562;2024-01-30T00:00:33;21.70;;;11.93;;
4603;SDS011;2314;48.272;11.562;2024-01-30T00:03:00;26.03;;;12.10;;
4603;SDS011;2314;48.272;11.562;2024-01-30T00:05:28;19.97;;;10.77;;
4603;SDS011;2314;48.272;11.562;2024-01-30T00:07:55;22.93;;;12.17;;
4603;SDS011;2314;48.272;11.562;2024-01-30T00:10:25;28.20;;;13.60;;
4603;SDS011;2314;48.272;11.562;2024-01-30T00:12:53;23.83;;;11.70;;
4603;SDS011;2314;48.272;11.562;2024-01-30T00:15:20;23.43;;;13.30;;
4603;SDS011;2314;48.272;11.562;2024-01-30T00:17:47;22.60;;;12.40;;
4603;SDS011;2314;48.272;11.562;2024-01-30T00:20:17;21.23;;;12.70;;
4603;SDS011;2314;48.272;11.562;2024-01-30T00:22:46;21.70;;;12.43;;
4603;SDS011;2314;48.272;11.562;2024-01-30T00:25:13;20.20;;;11.30;;
4603;SDS011;2314;48.272;11.562;2024-01-30T00:27:40;21.50;;;11.03;;
4603;SDS011;2314;48.272;11.562;2024-01-30T00:30:08;23.57;;;11.60;;
4603;SDS011;2314;48.272;11.562;2024-01-30T00:32:36;19.40;;;11.43;;
4603;SDS011;2314;48.272;11.562;2024-01-30T00:35:03;20.37;;;10.30;;
4603;SDS011;2314;48.272;11.562;2024-01-30T00:37:31;21.57;;;12.23;;
4603;SDS011;2314;48.272;11.562;2024-01-30T00:40:00;22.13;;;12.87;;
4603;SDS011;2314;48.272;11.562;2024-01-30T00:42:27;23.07;;;11.43;;
4603;SDS011;2314;48.272;11.562;2024-01-30T00:44:54;21.00;;;12.90;;
4603;SDS011;2314;48.272;11.562;2024-01-30T00:47:22;28.23;;;12.17;;
4603;SDS011;2314;48.272;11.562;2024-01-30T00:49:49;19.63;;;12.43;;
4603;SDS011;2314;48.272;11.562;2024-01-30T00:52:16;26.70;;;13.47;;
4603;SDS011;2314;48.272;11.562;2024-01-30T00:54:45;20.60;;;11.93;;
4603;SDS011;2314;48.272;11.562;2024-01-30T00:57:13;21.40;;;12.70;;
4603;SDS011;2314;48.272;11.562;2024-01-30T00:59:41;21.70;;;12.70;;
4603;SDS011;2314;48.272;11.562;2024-01-30T01:02:08;20.10;;;12.50;;
4603;SDS011;2314;48.272;11.562;2024-01-30T01:04:35;20.80;;;12.10;;
4603;SDS011;2314;48.272;11.562;2024-01-30T01:07:02;22.43;;;11.80;;
4603;SDS011;2314;48.272;11.562;2024-01-30T01:09:33;25.17;;;13.80;;
4603;SDS011;2314;48.272;11.562;2024-01-30T01:12:00;24.10;;;13.50;;
4603;SDS011;2314;48.272;11.562;2024-01-30T01:14:29;23.90;;;12.77;;
4603;SDS011;2314;48.272;11.562;2024-01-30T01:16:56;25.03;;;13.90;;
4603;SDS011;2314;48.272;11.562;2024-01-30T01:19:23;23.03;;;13.60;;
4603;SDS011;2314;48.272;11.562;2024-01-30T01:21:50;25.93;;;13.47;;
4603;SDS011;2314;48.272;11.562;2024-01-30T01:24:18;24.53;;;13.77;;
4603;SDS011;2314;48.272;11.562;2024-01-30T01:26:45;22.40;;;12.50;;
4603;SDS011;2314;48.272;11.562;2024-01-30T01:29:12;19.83;;;12.43;;
4603;SDS011;2314;48.272;11.562;2024-01-30T01:31:42;22.33;;;13.87;;
4603;SDS011;2314;48.272;11.562;2024-01-30T01:34:09;27.37;;;13.60;;
4603;SDS011;2314;48.272;11.562;2024-01-30T01:36:36;24.63;;;13.37;;
4603;SDS011;2314;48.272;11.562;2024-01-30T01:39:03;23.33;;;13.20;;
4603;SDS011;2314;48.272;11.562;2024-01-30T01:41:31;20.10;;;13.00;;
4603;SDS011;2314;48.272;11.562;2024-01-30T01:43:58;20.87;;;13.20;;
4603;SDS011;2314;48.272;11.562;2024-01-30T01:46:26;28.83;;;12.90;;
4603;SDS011;2314;48.272;11.562;2024-01-30T01:48:58;21.50;;;13.30;;
4603;SDS011;2314;48.272;11.562;2024-01-30T01:51:27;26.80;;;13.70;;
4603;SDS011;2314;48.272;11.562;2024-01-30T01:53:56;22.07;;;13.20;;
4603;SDS011;2314;48.272;11.562;2024-01-30T01:56:24;20.00;;;12.53;;
4603;SDS011;2314;48.272;11.562;2024-01-30T01:58:54;29.07;;;11.67;;
4603;SDS011;2314;48.272;11.562;2024-01-30T02:01:21;26.77;;;13.10;;
4603;SDS011;2314;48.272;11.562;2024-01-30T02:03:51;24.07;;;13.60;;
4603;SDS011;2314;48.272;11.562;2024-01-30T02:06:26;20.97;;;12.10;;
4603;SDS011;2314;48.272;11.562;2024-01-30T02:08:53;22.57;;;11.60;;
4603;SDS011;2314;48.272;11.562;2024-01-30T02:11:21;20.90;;;11.73;;
4603;SDS011;2314;48.272;11.562;2024-01-30T02:13:49;24.20;;;12.60;;
4603;SDS011;2314;48.272;11.562;2024-01-30T02:16:19;19.13;;;12.03;;
4603;SDS011;2314;48.272;11.562;2024-01-30T02:18:47;21.43;;;11.80;;
4603;SDS011;2314;48.272;11.562;2024-01-30T02:21:16;24.37;;;11.07;;
4603;SDS011;2314;48.272;11.562;2024-01-30T02:23:44;22.30;;;12.23;;
4603;SDS011;2314;48.272;11.562;2024-01-30T02:26:17;21.40;;;11.43;;
4603;SDS011;2314;48.272;11.562;2024-01-30T02:28:44;24.57;;;12.37;;
4603;SDS011;2314;48.272;11.562;2024-01-30T02:31:11;24.00;;;11.50;;
4603;SDS011;2314;48.272;11.562;2024-01-30T02:33:38;21.13;;;11.10;;
4603;SDS011;2314;48.272;11.562;2024-01-30T02:36:05;17.47;;;11.47;;
4603;SDS011;2314;48.272;11.562;2024-01-30T02:38:34;20.80;;;10.80;;
4603;SDS011;2314;48.272;11.562;2024-01-30T02:41:01;19.77;;;11.87;;
4603;SDS011;2314;48.272;11.562;2024-01-30T02:43:28;20.60;;;11.40;;
4603;SDS011;2314;48.272;11.562;2024-01-30T02:45:55;21.27;;;10.77;;
4603;SDS011;2314;48.272;11.562;2024-01-30T02:48:23;22.00;;;11.47;;
4603;SDS011;2314;48.272;11.562;2024-01-30T02:50:50;15.10;;;10.03;;
4603;SDS011;2314;48.272;11.562;2024-01-30T02:53:17;20.70;;;10.87;;
4603;SDS011;2314;48.272;11.562;2024-01-30T02:55:45;26.73;;;11.33;;
4603;SDS011;2314;48.272;11.562;2024-01-30T02:58:13;20.70;;;11.20;;
4603;SDS011;2314;48.272;11.562;2024-01-30T03:00:40;22.63;;;11.67;;
4603;SDS011;2314;48.272;11.562;2024-01-30T03:03:08;23.37;;;11.90;;
4603;SDS011;2314;48.272;11.562;2024-01-30T03:05:36;19.70;;;11.50;;
4603;SDS011;2314;48.272;11.562;2024-01-30T03:08:04;22.37;;;12.47;;
4603;SDS011;2314;48.272;11.562;2024-01-30T03:10:31;20.77;;;11.60;;
4603;SDS011;2314;48.272;11.562;2024-01-30T03:13:00;21.30;;;12.50;;
4603;SDS011;2314;48.272;11.562;2024-01-30T03:15:27;21.83;;;12.00;;
4603;SDS011;2314;48.272;11.562;2024-01-30T03:17:54;25.80;;;13.43;;
4603;SDS011;2314;48.272;11.562;2024-01-30T03:20:21;21.20;;;12.13;;
4603;SDS011;2314;48.272;11.562;2024-01-30T03:22:49;20.07;;;12.27;;
4603;SDS011;2314;48.272;11.562;2024-01-30T03:25:17;17.90;;;11.03;;
4603;SDS011;2314;48.272;11.562;2024-01-30T03:27:43;23.00;;;12.03;;
4603;SDS011;2314;48.272;11.562;2024-01-30T03:30:12;19.17;;;12.10;;
4603;SDS011;2314;48.272;11.562;2024-01-30T03:32:39;16.40;;;11.40;;
4603;SDS011;2314;48.272;11.562;2024-01-30T03:35:07;23.83;;;12.07;;
4603;SDS011;2314;48.272;11.562;2024-01-30T03:37:35;17.87;;;11.40;;
4603;SDS011;2314;48.272;11.562;2024-01-30T03:40:02;20.80;;;12.50;;
4603;SDS011;2314;48.272;11.562;2024-01-30T03:42:30;22.47;;;11.73;;
4603;SDS011;2314;48.272;11.562;2024-01-30T03:44:57;19.03;;;11.73;;
4603;SDS011;2314;48.272;11.562;2024-01-30T03:47:26;27.30;;;12.83;;
4603;SDS011;2314;48.272;11.562;2024-01-30T03:49:53;22.60;;;12.60;;
4603;SDS011;2314;48.272;11.562;2024-01-30T03:52:20;18.27;;;11.37;;
4603;SDS011;2314;48.272;11.562;2024-01-30T03:54:46;17.50;;;11.43;;
4603;SDS011;2314;48.272;11.562;2024-01-30T03:57:13;16.63;;;11.60;;
4603;SDS011;2314;48.272;11.562;2024-01-30T03:59:43;18.47;;;10.50;;
4603;SDS011;2314;48.272;11.562;2024-01-30T04:02:10;19.27;;;12.30;;
4603;SDS011;2314;48.272;11.562;2024-01-30T04:04:38;23.23;;;11.70;;
4603;SDS011;2314;48.272;11.562;2024-01-30T04:07:08;19.47;;;10.87;;
4603;SDS011;2314;48.272;11.562;2024-01-30T04:09:38;20.47;;;11.43;;
4603;SDS011;2314;48.272;11.562;2024-01-30T04:12:08;18.70;;;11.33;;
4603;SDS011;2314;48.272;11.562;2024-01-30T04:14:37;21.47;;;11.03;;
4603;SDS011;2314;48.272;11.562;2024-01-30T04:17:08;17.93;;;9.80;;
4603;SDS011;2314;48.272;11.562;2024-01-30T04:19:36;17.60;;;10.53;;
4603;SDS011;2314;48.272;11.562;2024-01-30T04:22:06;21.27;;;11.40;;
4603;SDS011;2314;48.272;11.562;2024-01-30T04:24:33;17.30;;;10.20;;
4603;SDS011;2314;48.272;11.562;2024-01-30T04:27:00;23.70;;;11.97;;
4603;SDS011;2314;48.272;11.562;2024-01-30T04:29:27;21.63;;;11.80;;
4603;SDS011;2314;48.272;11.562;2024-01-30T04:31:54;15.20;;;9.90;;
4603;SDS011;2314;48.272;11.562;2024-01-30T04:34:21;21.70;;;10.10;;
4603;SDS011;2314;48.272;11.562;2024-01-30T04:36:50;18.70;;;10.97;;
4603;SDS011;2314;48.272;11.562;2024-01-30T04:39:17;20.23;;;11.70;;
4603;SDS011;2314;48.272;11.562;2024-01-30T04:41:44;19.50;;;10.83;;
4603;SDS011;2314;48.272;11.562;2024-01-30T04:44:11;20.57;;;12.40;;
4603;SDS011;2314;48.272;11.562;2024-01-30T04:46:38;19.17;;;10.70;;
4603;SDS011;2314;48.272;11.562;2024-01-30T04:49:07;22.13;;;11.93;;
4603;SDS011;2314;48.272;11.562;2024-01-30T04:51:34;17.30;;;10.50;;
4603;SDS011;2314;48.272;11.562;2024-01-30T04:54:02;17.27;;;11.73;;
4603;SDS011;2314;48.272;11.562;2024-01-30T04:56:29;19.57;;;11.23;;
4603;SDS011;2314;48.272;11.562;2024-01-30T04:58:59;20.53;;;11.43;;
4603;SDS011;2314;48.272;11.562;2024-01-30T05:01:26;18.17;;;10.70;;
4603;SDS011;2314;48.272;11.562;2024-01-30T05:03:53;16.67;;;10.70;;
4603;SDS011;2314;48.272;11.562;2024-01-30T05:06:24;18.23;;;11.00;;
4603;SDS011;2314;48.272;11.562;2024-01-30T05:08:51;20.40;;;10.90;;
4603;SDS011;2314;48.272;11.562;2024-01-30T05:11:20;19.67;;;10.90;;
4603;SDS011;2314;48.272;11.562;2024-01-30T05:13:50;19.17;;;10.53;;
4603;SDS011;2314;48.272;11.562;2024-01-30T05:16:17;16.63;;;11.07;;
4603;SDS011;2314;48.272;11.562;2024-01-30T05:18:44;15.50;;;9.70;;
4603;SDS011;2314;48.272;11.562;2024-01-30T05:21:11;17.73;;;11.07;;
4603;SDS011;2314;48.272;11.562;2024-01-30T05:23:38;17.50;;;10.40;;
4603;SDS011;2314;48.272;11.562;2024-01-30T05:26:06;22.23;;;11.60;;
4603;SDS011;2314;48.272;11.562;2024-01-30T05:28:35;14.67;;;10.37;;
4603;SDS011;2314;48.272;11.562;2024-01-30T05:31:02;15.83;;;10.43;;
4603;SDS011;2314;48.272;11.562;2024-01-30T05:33:30;21.17;;;10.43;;
4603;SDS011;2314;48.272;11.562;2024-01-30T05:35:59;18.13;;;10.90;;
4603;SDS011;2314;48.272;11.562;2024-01-30T05:38:27;15.73;;;9.90;;
4603;SDS011;2314;48.272;11.562;2024-01-30T05:40:57;14.90;;;10.20;;
4603;SDS011;2314;48.272;11.562;2024-01-30T05:43:24;23.03;;;10.50;;
4603;SDS011;2314;48.272;11.562;2024-01-30T05:45:53;19.60;;;11.50;;
4603;SDS011;2314;48.272;11.562;2024-01-30T05:48:20;18.63;;;9.87;;
4603;SDS011;2314;48.272;11.562;2024-01-30T05:50:47;21.57;;;10.40;;
4603;SDS011;2314;48.272;11.562;2024-01-30T05:53:14;16.73;;;9.50;;
4603;SDS011;2314;48.272;11.562;2024-01-30T05:55:41;14.17;;;10.13;;
4603;SDS011;2314;48.272;11.562;2024-01-30T05:58:08;16.50;;;9.67;;
4603;SDS011;2314;48.272;11.562;2024-01-30T06:00:35;19.60;;;10.73;;
4603;SDS011;2314;48.272;11.562;2024-01-30T06:03:03;16.50;;;9.77;;
4603;SDS011;2314;48.272;11.562;2024-01-30T06:05:30;18.97;;;10.30;;
4603;SDS011;2314;48.272;11.562;2024-01-30T06:07:57;21.40;;;11.27;;
4603;SDS011;2314;48.272;11.562;2024-01-30T06:10:24;21.00;;;10.63;;
4603;SDS011;2314;48.272;11.562;2024-01-30T06:12:51;20.30;;;10.23;;
4603;SDS011;2314;48.272;11.562;2024-01-30T06:15:18;13.47;;;8.60;;
4603;SDS011;2314;48.272;11.562;2024-01-30T06:17:45;14.03;;;9.60;;
4603;SDS011;2314;48.272;11.562;2024-01-30T06:20:15;22.73;;;10.87;;
4603;SDS011;2314;48.272;11.562;2024-01-30T06:22:42;18.80;;;10.57;;
4603;SDS011;2314;48.272;11.562;2024-01-30T06:25:09;20.80;;;9.40;;
4603;SDS011;2314;48.272;11.562;2024-01-30T06:27:37;15.23;;;8.97;;
4603;SDS011;2314;48.272;11.562;2024-01-30T06:30:04;17.30;;;9.20;;
4603;SDS011;2314;48.272;11.562;2024-01-30T06:32:32;14.23;;;8.80;;
4603;SDS011;2314;48.272;11.562;2024-01-30T06:34:59;15.17;;;8.80;;
4603;SDS011;2314;48.272;11.562;2024-01-30T06:37:28;16.77;;;10.03;;
4603;SDS011;2314;48.272;11.562;2024-01-30T06:39:55;16.03;;;10.07;;
4603;SDS011;2314;48.272;11.562;2024-01-30T06:42:22;15.50;;;10.13;;
4603;SDS011;2314;48.272;11.562;2024-01-30T06:44:49;15.80;;;10.03;;
4603;SDS011;2314;48.272;11.562;2024-01-30T06:47:16;14.87;;;9.60;;
4603;SDS011;2314;48.272;11.562;2024-01-30T06:49:43;23.60;;;10.67;;
4603;SDS011;2314;48.272;11.562;2024-01-30T06:52:10;12.13;;;9.10;;
4603;SDS011;2314;48.272;11.562;2024-01-30T06:54:38;22.03;;;10.40;;
4603;SDS011;2314;48.272;11.562;2024-01-30T06:57:05;20.50;;;9.50;;
4603;SDS011;2314;48.272;11.562;2024-01-30T06:59:36;14.70;;;9.17;;
4603;SDS011;2314;48.272;11.562;2024-01-30T07:02:08;15.80;;;9.50;;
4603;SDS011;2314;48.272;11.562;2024-01-30T07:04:35;15.73;;;9.80;;
4603;SDS011;2314;48.272;11.562;2024-01-30T07:07:04;15.83;;;9.47;;
4603;SDS011;2314;48.272;11.562;2024-01-30T07:09:36;17.77;;;10.40;;
4603;SDS011;2314;48.272;11.562;2024-01-30T07:12:05;14.50;;;8.60;;
4603;SDS011;2314;48.272;11.562;2024-01-30T07:14:32;14.77;;;9.53;;
4603;SDS011;2314;48.272;11.562;2024-01-30T07:16:59;18.80;;;8.57;;
4603;SDS011;2314;48.272;11.562;2024-01-30T07:19:26;13.53;;;9.60;;
4603;SDS011;2314;48.272;11.562;2024-01-30T07:21:53;19.20;;;10.33;;
4603;SDS011;2314;48.272;11.562;2024-01-30T07:24:20;16.77;;;9.40;;
4603;SDS011;2314;48.272;11.562;2024-01-30T07:26:49;20.27;;;10.60;;
4603;SDS011;2314;48.272;11.562;2024-01-30T07:29:16;17.87;;;10.50;;
4603;SDS011;2314;48.272;11.562;2024-01-30T07:31:43;17.40;;;10.83;;
4603;SDS011;2314;48.272;11.562;2024-01-30T07:34:10;17.87;;;11.57;;
4603;SDS011;2314;48.272;11.562;2024-01-30T07:36:37;13.90;;;10.17;;
4603;SDS011;2314;48.272;11.562;2024-01-30T07:39:04;14.20;;;9.30;;
4603;SDS011;2314;48.272;11.562;2024-01-30T07:41:31;13.80;;;8.93;;
4603;SDS011;2314;48.272;11.562;2024-01-30T07:44:00;15.00;;;8.80;;
4603;SDS011;2314;48.272;11.562;2024-01-30T07:46:27;16.00;;;9.13;;
4603;SDS011;2314;48.272;11.562;2024-01-30T07:48:54;17.93;;;9.37;;
4603;SDS011;2314;48.272;11.562;2024-01-30T07:51:22;13.60;;;9.27;;
4603;SDS011;2314;48.272;11.562;2024-01-30T07:53:52;14.10;;;9.53;;
4603;SDS011;2314;48.272;11.562;2024-01-30T07:56:18;16.03;;;9.40;;
4603;SDS011;2314;48.272;11.562;2024-01-30T07:58:45;15.47;;;9.23;;
4603;SDS011;2314;48.272;11.562;2024-01-30T08:01:14;14.67;;;8.80;;
4603;SDS011;2314;48.272;11.562;2024-01-30T08:03:41;14.37;;;8.77;;
4603;SDS011;2314;48.272;11.562;2024-01-30T08:06:09;13.67;;;7.70;;
4603;SDS011;2314;48.272;11.562;2024-01-30T08:08:36;13.40;;;8.23;;
4603;SDS011;2314;48.272;11.562;2024-01-30T08:11:03;10.17;;;6.17;;
4603;SDS011;2314;48.272;11.562;2024-01-30T08:13:30;9.03;;;6.70;;
4603;SDS011;2314;48.272;11.562;2024-01-30T08:15:58;13.90;;;6.00;;
4603;SDS011;2314;48.272;11.562;2024-01-30T08:18:26;10.93;;;6.03;;
4603;SDS011;2314;48.272;11.562;2024-01-30T08:20:53;7.43;;;5.60;;
4603;SDS011;2314;48.272;11.562;2024-01-30T08:23:20;9.50;;;6.17;;
4603;SDS011;2314;48.272;11.562;2024-01-30T08:25:47;9.97;;;6.57;;
4603;SDS011;2314;48.272;11.562;2024-01-30T08:28:14;14.57;;;6.77;;
4603;SDS011;2314;48.272;11.562;2024-01-30T08:30:41;9.83;;;6.70;;
4603;SDS011;2314;48.272;11.562;2024-01-30T08:33:08;14.70;;;8.23;;
4603;SDS011;2314;48.272;11.562;2024-01-30T08:35:36;13.53;;;8.20;;
4603;SDS011;2314;48.272;11.562;2024-01-30T08:38:03;15.10;;;8.73;;
4603;SDS011;2314;48.272;11.562;2024-01-30T08:40:30;14.60;;;8.13;;
4603;SDS011;2314;48.272;11.562;2024-01-30T08:42:57;15.50;;;8.37;;
4603;SDS011;2314;48.272;11.562;2024-01-30T08:45:24;17.33;;;8.37;;
4603;SDS011;2314;48.272;11.562;2024-01-30T08:47:51;19.50;;;8.93;;
4603;SDS011;2314;48.272;11.562;2024-01-30T08:50:18;22.53;;;10.23;;
4603;SDS011;2314;48.272;11.562;2024-01-30T08:52:46;18.00;;;9.90;;
4603;SDS011;2314;48.272;11.562;2024-01-30T08:55:13;16.53;;;9.30;;
4603;SDS011;2314;48.272;11.562;2024-01-30T08:57:40;17.13;;;10.23;;
4603;SDS011;2314;48.272;11.562;2024-01-30T09:00:08;15.10;;;9.83;;
4603;SDS011;2314;48.272;11.562;2024-01-30T09:02:36;19.00;;;9.93;;
4603;SDS011;2314;48.272;11.562;2024-01-30T09:05:03;19.90;;;10.83;;
4603;SDS011;2314;48.272;11.562;2024-01-30T09:07:30;18.80;;;9.30;;
4603;SDS011;2314;48.272;11.562;2024-01-30T09:09:59;16.50;;;9.30;;
4603;SDS011;2314;48.272;11.562;2024-01-30T09:12:26;16.03;;;10.30;;
4603;SDS011;2314;48.272;11.562;2024-01-30T09:14:53;16.30;;;9.63;;
4603;SDS011;2314;48.272;11.562;2024-01-30T09:17:20;14.77;;;8.70;;
4603;SDS011;2314;48.272;11.562;2024-01-30T09:19:47;19.43;;;10.33;;
4603;SDS011;2314;48.272;11.562;2024-01-30T09:22:14;15.30;;;9.60;;
4603;SDS011;2314;48.272;11.562;2024-01-30T09:24:41;17.30;;;9.30;;
4603;SDS011;2314;48.272;11.562;2024-01-30T09:27:09;15.47;;;9.17;;
4603;SDS011;2314;48.272;11.562;2024-01-30T09:29:36;11.97;;;7.57;;
4603;SDS011;2314;48.272;11.562;2024-01-30T09:32:04;15.23;;;8.00;;
4603;SDS011;2314;48.272;11.562;2024-01-30T09:34:34;14.17;;;8.60;;
4603;SDS011;2314;48.272;11.562;2024-01-30T09:37:01;9.67;;;7.13;;
4603;SDS011;2314;48.272;11.562;2024-01-30T09:39:28;11.30;;;7.50;;
4603;SDS011;2314;48.272;11.562;2024-01-30T09:41:55;10.83;;;6.40;;
4603;SDS011;2314;48.272;11.562;2024-01-30T09:44:33;16.80;;;6.80;;
4603;SDS011;2314;48.272;11.562;2024-01-30T09:47:02;10.87;;;5.00;;
4603;SDS011;2314;48.272;11.562;2024-01-30T09:49:31;9.33;;;4.87;;
4603;SDS011;2314;48.272;11.562;2024-01-30T09:51:59;10.17;;;5.33;;
4603;SDS011;2314;48.272;11.562;2024-01-30T09:54:27;10.80;;;6.40;;
4603;SDS011;2314;48.272;11.562;2024-01-30T09:56:56;15.27;;;5.70;;
4603;SDS011;2314;48.272;11.562;2024-01-30T09:59:23;8.63;;;5.53;;
4603;SDS011;2314;48.272;11.562;2024-01-30T10:01:52;11.10;;;5.70;;
4603;SDS011;2314;48.272;11.562;2024-01-30T10:04:19;11.63;;;6.43;;
4603;SDS011;2314;48.272;11.562;2024-01-30T10:06:46;12.70;;;6.07;;
4603;SDS011;2314;48.272;11.562;2024-01-30T10:09:13;10.30;;;5.23;;
4603;SDS011;2314;48.272;11.562;2024-01-30T10:11:40;11.20;;;5.77;;
4603;SDS011;2314;48.272;11.562;2024-01-30T10:14:08;12.40;;;6.23;;
4603;SDS011;2314;48.272;11.562;2024-01-30T10:16:34;10.80;;;7.20;;
4603;SDS011;2314;48.272;11.562;2024-01-30T10:19:03;11.43;;;6.80;;
4603;SDS011;2314;48.272;11.562;2024-01-30T10:21:30;10.40;;;7.07;;
4603;SDS011;2314;48.272;11.562;2024-01-30T10:23:57;10.83;;;6.63;;
4603;SDS011;2314;48.272;11.562;2024-01-30T10:26:24;12.57;;;6.80;;
4603;SDS011;2314;48.272;11.562;2024-01-30T10:28:51;11.30;;;6.77;;
4603;SDS011;2314;48.272;11.562;2024-01-30T10:31:19;8.63;;;6.10;;
4603;SDS011;2314;48.272;11.562;2024-01-30T10:33:46;9.17;;;6.00;;
4603;SDS011;2314;48.272;11.562;2024-01-30T10:36:14;11.60;;;5.70;;
4603;SDS011;2314;48.272;11.562;2024-01-30T10:38:42;9.47;;;5.63;;
4603;SDS011;2314;48.272;11.562;2024-01-30T10:41:11;9.50;;;6.47;;
4603;SDS011;2314;48.272;11.562;2024-01-30T10:43:41;11.30;;;5.90;;
4603;SDS011;2314;48.272;11.562;2024-01-30T10:46:16;8.63;;;5.27;;
4603;SDS011;2314;48.272;11.562;2024-01-30T10:48:50;7.03;;;4.87;;
4603;SDS011;2314;48.272;11.562;2024-01-30T10:51:23;8.47;;;5.47;;
4603;SDS011;2314;48.272;11.562;2024-01-30T10:53:52;8.80;;;4.73;;
4603;SDS011;2314;48.272;11.562;2024-01-30T10:56:20;8.27;;;4.77;;
4603;SDS011;2314;48.272;11.562;2024-01-30T10:58:48;7.70;;;4.00;;
4603;SDS011;2314;48.272;11.562;2024-01-30T11:01:17;6.43;;;3.00;;
4603;SDS011;2314;48.272;11.562;2024-01-30T11:03:44;9.20;;;3.43;;
4603;SDS011;2314;48.272;11.562;2024-01-30T11:06:12;5.33;;;3.07;;
4603;SDS011;2314;48.272;11.562;2024-01-30T11:08:44;8.20;;;3.93;;
4603;SDS011;2314;48.272;11.562;2024-01-30T11:11:11;8.90;;;4.77;;
4603;SDS011;2314;48.272;11.562;2024-01-30T11:13:39;7.37;;;4.00;;
4603;SDS011;2314;48.272;11.562;2024-01-30T11:16:07;8.23;;;4.30;;
4603;SDS011;2314;48.272;11.562;2024-01-30T11:18:38;12.80;;;4.37;;
4603;SDS011;2314;48.272;11.562;2024-01-30T11:21:05;9.00;;;3.70;;
4603;SDS011;2314;48.272;11.562;2024-01-30T11:23:33;7.27;;;3.83;;
4603;SDS011;2314;48.272;11.562;2024-01-30T11:26:03;7.10;;;3.50;;
4603;SDS011;2314;48.272;11.562;2024-01-30T11:28:32;7.93;;;3.50;;
4603;SDS011;2314;48.272;11.562;2024-01-30T11:31:03;6.87;;;3.17;;
4603;SDS011;2314;48.272;11.562;2024-01-30T11:33:32;10.37;;;4.10;;
4603;SDS011;2314;48.272;11.562;2024-01-30T11:35:59;10.60;;;3.80;;
4603;SDS011;2314;48.272;11.562;2024-01-30T11:38:27;7.63;;;3.13;;
4603;SDS011;2314;48.272;11.562;2024-01-30T11:40:55;7.13;;;3.60;;
4603;SDS011;2314;48.272;11.562;2024-01-30T11:43:24;5.30;;;3.07;;
4603;SDS011;2314;48.272;11.562;2024-01-30T11:45:51;5.87;;;3.00;;
4603;SDS011;2314;48.272;11.562;2024-01-30T11:48:18;5.47;;;2.83;;
4603;SDS011;2314;48.272;11.562;2024-01-30T11:50:45;4.20;;;2.47;;
4603;SDS011;2314;48.272;11.562;2024-01-30T11:53:13;4.57;;;2.23;;
4603;SDS011;2314;48.272;11.562;2024-01-30T11:55:40;4.57;;;2.70;;
4603;SDS011;2314;48.272;11.562;2024-01-30T11:58:08;4.73;;;2.20;;
4603;SDS011;2314;48.272;11.562;2024-01-30T12:00:36;4.87;;;2.53;;
4603;SDS011;2314;48.272;11.562;2024-01-30T12:03:03;4.80;;;2.47;;
4603;SDS011;2314;48.272;11.562;2024-01-30T12:05:32;4.83;;;2.43;;
4603;SDS011;2314;48.272;11.562;2024-01-30T12:07:59;4.90;;;2.33;;
4603;SDS011;2314;48.272;11.562;2024-01-30T12:10:26;3.60;;;2.17;;
4603;SDS011;2314;48.272;11.562;2024-01-30T12:12:53;4.83;;;2.90;;
4603;SDS011;2314;48.272;11.562;2024-01-30T12:15:21;5.70;;;2.60;;
4603;SDS011;2314;48.272;11.562;2024-01-30T12:17:50;5.00;;;2.50;;
4603;SDS011;2314;48.272;11.562;2024-01-30T12:20:17;4.40;;;2.50;;
4603;SDS011;2314;48.272;11.562;2024-01-30T12:22:46;6.90;;;2.60;;
4603;SDS011;2314;48.272;11.562;2024-01-30T12:25:15;5.23;;;2.63;;
4603;SDS011;2314;48.272;11.562;2024-01-30T12:27:43;11.33;;;3.40;;
4603;SDS011;2314;48.272;11.562;2024-01-30T12:30:15;6.00;;;2.70;;
4603;SDS011;2314;48.272;11.562;2024-01-30T12:32:43;6.13;;;2.77;;
4603;SDS011;2314;48.272;11.562;2024-01-30T12:35:13;4.43;;;2.80;;
4603;SDS011;2314;48.272;11.562;2024-01-30T12:37:42;8.13;;;2.60;;
4603;SDS011;2314;48.272;11.562;2024-01-30T12:40:10;4.00;;;2.60;;
4603;SDS011;2314;48.272;11.562;2024-01-30T12:42:39;5.03;;;2.80;;
4603;SDS011;2314;48.272;11.562;2024-01-30T12:45:08;9.50;;;3.57;;
4603;SDS011;2314;48.272;11.562;2024-01-30T12:47:35;10.63;;;3.30;;
4603;SDS011;2314;48.272;11.562;2024-01-30T12:50:02;8.20;;;3.23;;
4603;SDS011;2314;48.272;11.562;2024-01-30T12:52:31;5.30;;;2.70;;
4603;SDS011;2314;48.272;11.562;2024-01-30T12:54:58;7.27;;;2.97;;
4603;SDS011;2314;48.272;11.562;2024-01-30T12:57:25;6.10;;;3.00;;
4603;SDS011;2314;48.272;11.562;2024-01-30T12:59:52;6.87;;;3.57;;
4603;SDS011;2314;48.272;11.562;2024-01-30T13:02:19;8.50;;;3.27;;
4603;SDS011;2314;48.272;11.562;2024-01-30T13:04:47;6.20;;;3.07;;
4603;SDS011;2314;48.272;11.562;2024-01-30T13:07:14;6.87;;;2.83;;
4603;SDS011;2314;48.272;11.562;2024-01-30T13:09:43;7.50;;;2.80;;
4603;SDS011;2314;48.272;11.562;2024-01-30T13:12:10;5.03;;;2.60;;
4603;SDS011;2314;48.272;11.562;2024-01-30T13:14:37;5.97;;;3.27;;
4603;SDS011;2314;48.272;11.562;2024-01-30T13:17:04;4.93;;;3.37;;
4603;SDS011;2314;48.272;11.562;2024-01-30T13:19:31;6.10;;;3.43;;
4603;SDS011;2314;48.272;11.562;2024-01-30T13:21:58;6.73;;;3.40;;
4603;SDS011;2314;48.272;11.562;2024-01-30T13:24:25;7.70;;;4.03;;
4603;SDS011;2314;48.272;11.562;2024-01-30T13:26:53;6.23;;;2.60;;
4603;SDS011;2314;48.272;11.562;2024-01-30T13:29:20;5.80;;;2.93;;
4603;SDS011;2314;48.272;11.562;2024-01-30T13:31:47;7.30;;;2.93;;
4603;SDS011;2314;48.272;11.562;2024-01-30T13:34:14;4.37;;;2.90;;
4603;SDS011;2314;48.272;11.562;2024-01-30T13:36:41;6.27;;;2.93;;
4603;SDS011;2314;48.272;11.562;2024-01-30T13:39:08;12.40;;;3.40;;
4603;SDS011;2314;48.272;11.562;2024-01-30T13:41:37;6.53;;;3.80;;
4603;SDS011;2314;48.272;11.562;2024-01-30T13:44:06;6.00;;;3.10;;
4603;SDS011;2314;48.272;11.562;2024-01-30T13:46:33;4.93;;;2.50;;
4603;SDS011;2314;48.272;11.562;2024-01-30T13:49:00;6.10;;;2.90;;
4603;SDS011;2314;48.272;11.562;2024-01-30T13:51:27;6.10;;;2.93;;
4603;SDS011;2314;48.272;11.562;2024-01-30T13:53:55;3.97;;;2.37;;
4603;SDS011;2314;48.272;11.562;2024-01-30T13:56:22;6.27;;;3.57;;
4603;SDS011;2314;48.272;11.562;2024-01-30T13:58:49;7.83;;;3.40;;
4603;SDS011;2314;48.272;11.562;2024-01-30T14:01:18;5.60;;;3.20;;
4603;SDS011;2314;48.272;11.562;2024-01-30T14:03:45;5.53;;;2.70;;
4603;SDS011;2314;48.272;11.562;2024-01-30T14:06:12;4.37;;;3.07;;
4603;SDS011;2314;48.272;11.562;2024-01-30T14:08:39;5.60;;;2.97;;
4603;SDS011;2314;48.272;11.562;2024-01-30T14:11:07;10.30;;;3.17;;
4603;SDS011;2314;48.272;11.562;2024-01-30T14:13:34;5.27;;;3.97;;
4603;SDS011;2314;48.272;11.562;2024-01-30T14:16:01;7.17;;;3.30;;
4603;SDS011;2314;48.272;11.562;2024-01-30T14:18:30;10.60;;;3.90;;
4603;SDS011;2314;48.272;11.562;2024-01-30T14:20:57;9.20;;;3.87;;
4603;SDS011;2314;48.272;11.562;2024-01-30T14:23:24;9.40;;;3.67;;
4603;SDS011;2314;48.272;11.562;2024-01-30T14:25:51;6.10;;;3.60;;
4603;SDS011;2314;48.272;11.562;2024-01-30T14:28:18;6.40;;;3.70;;
4603;SDS011;2314;48.272;11.562;2024-01-30T14:30:45;5.03;;;3.40;;
4603;SDS011;2314;48.272;11.562;2024-01-30T14:33:12;7.50;;;3.80;;
4603;SDS011;2314;48.272;11.562;2024-01-30T14:35:40;9.30;;;3.20;;
4603;SDS011;2314;48.272;11.562;2024-01-30T14:38:07;5.83;;;3.50;;
4603;SDS011;2314;48.272;11.562;2024-01-30T14:40:34;6.37;;;3.47;;
4603;SDS011;2314;48.272;11.562;2024-01-30T14:43:02;7.53;;;3.93;;
4603;SDS011;2314;48.272;11.562;2024-01-30T14:45:29;21.73;;;4.63;;
4603;SDS011;2314;48.272;11.562;2024-01-30T14:47:57;6.37;;;3.60;;